TimeEDT,TemperatureF,Dew PointF,Humidity,Sea Level PressureIn,VisibilityMPH,Wind Direction,Wind SpeedMPH,Gust SpeedMPH,PrecipitationIn,Events,Conditions,WindDirDegrees,DateUTC
12:15 AM,49.3,48.0,95,29.94,7.0,North,4.6,-,N/A,,Overcast,360,2012-09-30 04:15:00
12:35 AM,49.3,47.8,95,29.93,5.0,North,3.5,-,N/A,,Overcast,360,2012-09-30 04:35:00
12:55 AM,49.3,47.8,95,29.93,5.0,North,3.5,-,N/A,,Overcast,350,2012-09-30 04:55:00
1:15 AM,49.3,47.8,95,29.93,7.0,North,4.6,-,N/A,,Overcast,10,2012-09-30 05:15:00
1:35 AM,49.3,47.8,95,29.92,7.0,North,4.6,-,N/A,,Overcast,10,2012-09-30 05:35:00
2:15 AM,49.3,47.8,95,29.93,10.0,Calm,Calm,-,N/A,,Overcast,0,2012-09-30 06:15:00
2:35 AM,49.3,47.8,95,29.92,10.0,Calm,Calm,-,N/A,,Overcast,0,2012-09-30 06:35:00
3:15 AM,49.3,48.2,96,29.91,10.0,Calm,Calm,-,N/A,,Overcast,0,2012-09-30 07:15:00
3:35 AM,49.3,48.2,96,29.90,10.0,North,3.5,-,N/A,,Overcast,360,2012-09-30 07:35:00
3:55 AM,49.3,48.2,96,29.90,10.0,Calm,Calm,-,N/A,,Overcast,0,2012-09-30 07:55:00
4:15 AM,49.3,48.2,96,29.91,10.0,Calm,Calm,-,N/A,,Overcast,0,2012-09-30 08:15:00
4:35 AM,49.3,48.2,96,29.92,10.0,Calm,Calm,-,N/A,,Overcast,0,2012-09-30 08:35:00
5:15 AM,49.3,48.2,96,29.90,10.0,Calm,Calm,-,N/A,,Overcast,0,2012-09-30 09:15:00
5:35 AM,49.3,48.2,96,29.90,10.0,North,3.5,-,N/A,,Overcast,360,2012-09-30 09:35:00
5:55 AM,49.3,48.2,96,29.90,10.0,Calm,Calm,-,N/A,,Overcast,0,2012-09-30 09:55:00
6:15 AM,49.3,48.2,96,29.90,10.0,Calm,Calm,-,N/A,,Overcast,0,2012-09-30 10:15:00
6:35 AM,49.3,48.2,96,29.91,10.0,Calm,Calm,-,N/A,,Overcast,0,2012-09-30 10:35:00
7:15 AM,49.3,48.2,96,29.89,7.0,Calm,Calm,-,N/A,,Overcast,0,2012-09-30 11:15:00
7:35 AM,49.3,48.2,96,29.89,5.0,Calm,Calm,-,N/A,,Overcast,0,2012-09-30 11:35:00
7:55 AM,49.3,48.2,96,29.89,7.0,North,3.5,-,N/A,,Overcast,10,2012-09-30 11:55:00
8:15 AM,49.3,48.2,96,29.89,7.0,Calm,Calm,-,N/A,,Overcast,0,2012-09-30 12:15:00
8:35 AM,49.3,48.2,96,29.90,7.0,Calm,Calm,-,N/A,,Overcast,0,2012-09-30 12:35:00
8:55 AM,49.3,47.8,95,29.90,5.0,Calm,Calm,-,N/A,,Overcast,0,2012-09-30 12:55:00
9:15 AM,49.5,48.2,95,29.88,5.0,Calm,Calm,-,N/A,,Overcast,0,2012-09-30 13:15:00
9:35 AM,51.6,50.2,95,29.88,5.0,Calm,Calm,-,N/A,,Overcast,0,2012-09-30 13:35:00
9:55 AM,51.8,50.4,95,29.88,4.0,North,3.5,-,N/A,,Overcast,350,2012-09-30 13:55:00
10:15 AM,51.8,50.2,94,29.88,7.0,NNE,5.8,-,N/A,,Overcast,20,2012-09-30 14:15:00
10:35 AM,51.8,50.0,94,29.87,7.0,Calm,Calm,-,N/A,,Overcast,0,2012-09-30 14:35:00
11:15 AM,51.8,49.5,92,29.86,7.0,Calm,Calm,-,N/A,,Overcast,0,2012-09-30 15:15:00
11:35 AM,52.0,49.1,90,29.85,10.0,NNW,3.5,-,N/A,,Overcast,340,2012-09-30 15:35:00
12:15 PM,53.1,49.6,88,29.84,10.0,North,3.5,-,N/A,,Overcast,360,2012-09-30 16:15:00
12:35 PM,53.6,49.6,86,29.83,10.0,Calm,Calm,-,N/A,,Overcast,0,2012-09-30 16:35:00
12:55 PM,54.0,50.0,86,29.82,10.0,Calm,Calm,-,N/A,,Overcast,0,2012-09-30 16:55:00
1:15 PM,53.8,50.2,88,29.81,10.0,Calm,Calm,-,N/A,,Overcast,0,2012-09-30 17:15:00
1:35 PM,52.7,49.6,89,29.80,4.0,Calm,Calm,-,N/A,Rain,Rain,0,2012-09-30 17:35:00
1:55 PM,51.8,49.3,91,29.79,4.0,North,3.5,-,N/A,Rain,Rain,360,2012-09-30 17:55:00
2:15 PM,51.8,49.8,93,29.79,5.0,North,3.5,-,N/A,Rain,Rain,10,2012-09-30 18:15:00
2:35 PM,51.8,50.0,94,29.78,5.0,North,6.9,-,N/A,Rain,Rain,360,2012-09-30 18:35:00
2:55 PM,51.8,50.0,94,29.77,5.0,NNW,3.5,-,N/A,Rain,Rain,340,2012-09-30 18:55:00
3:15 PM,51.8,50.2,94,29.76,7.0,NNW,3.5,-,N/A,Rain,Light Rain,340,2012-09-30 19:15:00
3:35 PM,51.8,50.2,94,29.75,7.0,Calm,Calm,-,N/A,,Drizzle,0,2012-09-30 19:35:00
3:55 PM,51.8,50.2,94,29.74,7.0,WNW,4.6,-,N/A,Rain,Light Rain,300,2012-09-30 19:55:00
4:15 PM,51.8,50.2,94,29.73,7.0,NW,5.8,-,N/A,Rain,Light Rain,320,2012-09-30 20:15:00
4:35 PM,51.8,50.2,94,29.73,10.0,Calm,Calm,-,N/A,,Drizzle,0,2012-09-30 20:35:00
4:55 PM,51.8,50.2,94,29.72,7.0,Calm,Calm,-,N/A,Rain,Light Rain,0,2012-09-30 20:55:00
5:15 PM,51.8,50.2,94,29.72,10.0,NW,3.5,-,N/A,Rain,Rain,310,2012-09-30 21:15:00
5:35 PM,51.8,50.2,94,29.71,4.0,Calm,Calm,-,N/A,Rain,Light Rain,0,2012-09-30 21:35:00
6:15 PM,51.8,50.4,95,29.69,5.0,Calm,Calm,-,N/A,Rain,Rain,0,2012-09-30 22:15:00
6:35 PM,51.8,50.4,95,29.70,7.0,West,3.5,-,N/A,,Drizzle,270,2012-09-30 22:35:00
6:55 PM,51.8,50.4,95,29.69,7.0,Calm,Calm,-,N/A,,Drizzle,0,2012-09-30 22:55:00
7:15 PM,51.8,50.4,95,29.69,5.0,Calm,Calm,-,N/A,Rain,Rain,0,2012-09-30 23:15:00
7:35 PM,51.8,50.4,95,29.69,5.0,Calm,Calm,-,N/A,,Drizzle,0,2012-09-30 23:35:00
7:55 PM,51.8,50.5,95,29.68,10.0,Calm,Calm,-,N/A,Rain,Light Rain,0,2012-09-30 23:55:00
8:15 PM,51.8,50.5,95,29.67,5.0,Calm,Calm,-,N/A,,Drizzle,0,2012-10-01 00:15:00
8:35 PM,51.4,50.4,96,29.67,4.0,Calm,Calm,-,N/A,Rain,Rain,0,2012-10-01 00:35:00
8:55 PM,51.8,50.5,95,29.66,4.0,WSW,3.5,-,N/A,Rain,Light Rain,240,2012-10-01 00:55:00
9:15 PM,51.8,50.5,95,29.65,10.0,West,3.5,-,N/A,Rain,Light Rain,260,2012-10-01 01:15:00
9:35 PM,51.8,50.5,95,29.64,7.0,West,3.5,-,N/A,Rain,Light Rain,260,2012-10-01 01:35:00
9:55 PM,51.8,50.5,95,29.64,5.0,Calm,Calm,-,N/A,Rain,Light Rain,0,2012-10-01 01:55:00
10:15 PM,51.8,50.5,95,29.63,7.0,WSW,3.5,-,N/A,Rain,Light Rain,250,2012-10-01 02:15:00
10:35 PM,51.8,50.5,95,29.62,5.0,SW,3.5,-,N/A,Rain,Light Rain,230,2012-10-01 02:35:00
10:55 PM,51.8,50.5,95,29.62,5.0,SW,5.8,-,N/A,Rain,Rain,230,2012-10-01 02:55:00
11:15 PM,51.8,50.5,95,29.61,5.0,SW,5.8,-,N/A,,Drizzle,220,2012-10-01 03:15:00
11:35 PM,51.8,50.4,95,29.60,10.0,SW,6.9,-,N/A,Rain,Rain,220,2012-10-01 03:35:00
11:55 PM,51.8,50.4,95,29.59,7.0,WSW,4.6,-,N/A,,Drizzle,240,2012-10-01 03:55:00